createdAt,value
2023-09-29T00:00:20.889Z,18.77
2023-09-29T00:02:51.649Z,14.65
2023-09-29T00:05:20.643Z,16.50
2023-09-29T00:07:48.898Z,19.73
2023-09-29T00:10:19.050Z,21.20
2023-09-29T00:12:47.674Z,18.58
2023-09-29T00:15:18.241Z,15.32
2023-09-29T00:17:46.776Z,19.48
2023-09-29T00:20:19.840Z,15.57
2023-09-29T00:22:48.197Z,17.20
2023-09-29T00:25:16.555Z,18.25
2023-09-29T00:27:44.655Z,17.90
2023-09-29T00:30:14.629Z,19.20
2023-09-29T00:32:48.251Z,14.98
2023-09-29T00:35:22.984Z,17.33
2023-09-29T00:37:51.071Z,18.23
2023-09-29T00:40:19.355Z,15.15
2023-09-29T00:42:47.969Z,16.80
2023-09-29T00:45:20.868Z,15.55
2023-09-29T00:47:52.299Z,15.02
2023-09-29T00:50:21.839Z,21.97
2023-09-29T00:52:53.643Z,15.38
2023-09-29T00:55:28.656Z,20.70
2023-09-29T00:57:59.473Z,16.58
2023-09-29T01:00:32.620Z,15.63
2023-09-29T01:03:06.679Z,21.60
2023-09-29T01:05:39.197Z,12.45
2023-09-29T01:08:10.716Z,18.05
2023-09-29T01:10:39.181Z,15.32
2023-09-29T01:13:07.825Z,13.98
2023-09-29T01:15:37.589Z,14.68
2023-09-29T01:18:08.645Z,17.98
2023-09-29T01:20:38.777Z,19.05
2023-09-29T01:23:08.636Z,13.93
2023-09-29T01:25:39.373Z,22.15
2023-09-29T01:28:09.691Z,14.88
2023-09-29T01:30:38.049Z,17.25
2023-09-29T01:33:06.850Z,19.15
2023-09-29T01:35:35.001Z,12.85
2023-09-29T01:38:03.181Z,18.48
2023-09-29T01:40:31.467Z,17.13
2023-09-29T01:43:00.852Z,17.77
2023-09-29T01:45:29.406Z,14.85
2023-09-29T01:47:57.648Z,18.27
2023-09-29T01:50:27.603Z,14.38
2023-09-29T01:52:55.661Z,12.13
2023-09-29T01:55:25.347Z,14.10
2023-09-29T01:57:56.102Z,15.85
2023-09-29T02:00:26.904Z,16.08
2023-09-29T02:02:56.647Z,15.23
2023-09-29T02:05:25.662Z,15.18
2023-09-29T02:07:54.466Z,17.80
2023-09-29T02:10:23.710Z,17.05
2023-09-29T02:12:56.499Z,12.88
2023-09-29T02:15:26.901Z,14.18
2023-09-29T02:17:55.406Z,16.58
2023-09-29T02:20:30.067Z,16.33
2023-09-29T02:22:58.548Z,15.63
2023-09-29T02:25:27.557Z,12.98
2023-09-29T02:27:57.123Z,15.00
2023-09-29T02:30:27.360Z,17.17
2023-09-29T02:32:55.755Z,19.23
2023-09-29T02:35:27.027Z,20.20
2023-09-29T02:37:55.258Z,18.60
2023-09-29T02:40:24.881Z,15.20
2023-09-29T02:42:53.775Z,16.77
2023-09-29T02:45:21.987Z,20.40
2023-09-29T02:47:53.361Z,22.30
2023-09-29T02:50:21.946Z,17.10
2023-09-29T02:52:50.130Z,17.30
2023-09-29T02:55:18.186Z,19.20
2023-09-29T02:57:47.261Z,20.17
2023-09-29T03:00:20.152Z,14.95
2023-09-29T03:02:49.081Z,16.65
2023-09-29T03:05:18.675Z,16.95
2023-09-29T03:07:46.864Z,14.02
2023-09-29T03:10:15.822Z,16.83
2023-09-29T03:12:44.909Z,13.80
2023-09-29T03:15:16.453Z,16.98
2023-09-29T03:17:45.353Z,21.00
2023-09-29T03:20:14.309Z,15.75
2023-09-29T03:22:46.000Z,18.27
2023-09-29T03:25:17.946Z,17.48
2023-09-29T03:30:16.827Z,15.43
2023-09-29T03:32:45.781Z,17.83
2023-09-29T03:35:15.098Z,14.75
2023-09-29T03:37:46.501Z,21.40
2023-09-29T03:40:15.107Z,16.38
2023-09-29T03:42:43.605Z,15.00
2023-09-29T03:45:13.885Z,15.55
2023-09-29T03:47:42.639Z,16.10
2023-09-29T03:50:14.001Z,16.55
2023-09-29T03:52:45.623Z,17.97
2023-09-29T03:55:15.777Z,21.50
2023-09-29T03:57:45.699Z,17.45
2023-09-29T04:00:15.438Z,12.93
2023-09-29T04:02:44.404Z,13.88
2023-09-29T04:05:13.179Z,16.40
2023-09-29T04:07:42.143Z,17.05
2023-09-29T04:10:12.571Z,17.42
2023-09-29T04:12:42.172Z,13.75
2023-09-29T04:15:11.200Z,16.67
2023-09-29T04:17:40.178Z,11.85
2023-09-29T04:20:10.010Z,14.23
2023-09-29T04:22:38.256Z,19.23
2023-09-29T04:25:12.076Z,12.77
2023-09-29T04:27:41.280Z,11.82
2023-09-29T04:30:11.323Z,11.48
2023-09-29T04:32:39.735Z,12.05
2023-09-29T04:35:08.437Z,13.43
2023-09-29T04:37:36.491Z,12.38
2023-09-29T04:40:05.556Z,15.55
2023-09-29T04:42:35.577Z,14.63
2023-09-29T04:45:04.567Z,15.23
2023-09-29T04:47:32.942Z,11.68
2023-09-29T04:50:01.195Z,13.98
2023-09-29T04:52:29.303Z,14.15
2023-09-29T04:54:57.336Z,11.38
2023-09-29T04:57:25.514Z,12.77
2023-09-29T04:59:54.931Z,12.55
2023-09-29T05:02:23.205Z,11.07
2023-09-29T05:04:51.350Z,12.65
2023-09-29T05:07:19.310Z,10.40
2023-09-29T05:09:48.703Z,12.07
2023-09-29T05:12:16.786Z,14.57
2023-09-29T05:14:44.943Z,12.88
2023-09-29T05:17:14.398Z,11.68
2023-09-29T05:19:42.916Z,9.73
2023-09-29T05:22:10.962Z,10.77
2023-09-29T05:24:39.641Z,9.50
2023-09-29T05:27:08.204Z,13.55
2023-09-29T05:29:38.254Z,12.57
2023-09-29T05:32:06.548Z,10.85
2023-09-29T05:34:36.517Z,17.60
2023-09-29T05:37:05.665Z,14.52
2023-09-29T05:39:34.116Z,15.88
2023-09-29T05:42:02.216Z,12.88
2023-09-29T05:44:30.315Z,10.45
2023-09-29T05:46:58.335Z,10.32
2023-09-29T05:49:26.337Z,10.82
2023-09-29T05:51:55.805Z,10.15
2023-09-29T05:54:23.866Z,13.30
2023-09-29T05:56:52.182Z,11.82
2023-09-29T05:59:20.268Z,10.80
2023-09-29T06:01:48.347Z,10.45
2023-09-29T06:04:16.515Z,10.90
2023-09-29T06:06:44.694Z,10.48
2023-09-29T06:09:14.118Z,10.90
2023-09-29T06:11:42.284Z,13.35
2023-09-29T06:14:10.316Z,12.25
2023-09-29T06:16:38.577Z,10.02
2023-09-29T06:19:08.272Z,12.23
2023-09-29T06:21:36.645Z,9.82
2023-09-29T06:24:04.955Z,13.98
2023-09-29T06:26:34.493Z,11.73
2023-09-29T06:29:02.665Z,10.05
2023-09-29T06:31:30.735Z,11.18
2023-09-29T06:33:59.006Z,11.35
2023-09-29T06:36:27.273Z,9.07
2023-09-29T06:38:55.426Z,9.82
2023-09-29T06:41:24.360Z,11.32
2023-09-29T06:43:55.072Z,10.57
2023-09-29T06:46:23.294Z,9.60
2023-09-29T06:48:51.645Z,8.80
2023-09-29T06:51:19.742Z,10.15
2023-09-29T06:53:49.021Z,9.20
2023-09-29T06:56:18.700Z,8.55
2023-09-29T06:58:47.806Z,10.18
2023-09-29T07:01:17.433Z,8.55
2023-09-29T07:03:46.950Z,9.25
2023-09-29T07:06:15.143Z,10.77
2023-09-29T07:08:43.264Z,10.40
2023-09-29T07:11:11.336Z,9.43
2023-09-29T07:13:39.333Z,13.48
2023-09-29T07:16:07.422Z,11.15
2023-09-29T07:18:37.033Z,9.10
2023-09-29T07:21:05.355Z,10.60
2023-09-29T07:23:35.528Z,9.73
2023-09-29T07:26:03.566Z,9.43
2023-09-29T07:28:31.593Z,11.10
2023-09-29T07:31:00.437Z,9.63
2023-09-29T07:33:28.657Z,12.30
2023-09-29T07:35:58.156Z,9.63
2023-09-29T07:38:26.425Z,10.75
2023-09-29T07:40:54.440Z,8.95
2023-09-29T07:43:23.130Z,11.30
2023-09-29T07:45:51.144Z,9.75
2023-09-29T07:48:19.235Z,11.20
2023-09-29T07:50:47.349Z,8.73
2023-09-29T07:53:16.710Z,10.50
2023-09-29T07:55:44.700Z,10.40
2023-09-29T07:58:12.750Z,10.35
2023-09-29T08:00:40.873Z,8.52
2023-09-29T08:03:09.135Z,8.82
2023-09-29T08:05:37.476Z,10.25
2023-09-29T08:08:06.183Z,9.20
2023-09-29T08:10:35.575Z,8.13
2023-09-29T08:13:03.623Z,9.80
2023-09-29T08:15:31.621Z,12.13
2023-09-29T08:17:59.744Z,9.60
2023-09-29T08:20:27.910Z,11.27
2023-09-29T08:22:55.977Z,13.00
2023-09-29T08:25:24.045Z,7.13
2023-09-29T08:27:53.739Z,9.20
2023-09-29T08:30:22.426Z,7.43
2023-09-29T08:32:56.627Z,8.15
2023-09-29T08:35:30.957Z,11.60
2023-09-29T08:38:00.009Z,8.43
2023-09-29T08:40:28.511Z,12.68
2023-09-29T08:42:58.343Z,9.90
2023-09-29T08:45:32.089Z,9.65
2023-09-29T08:48:02.013Z,8.07
2023-09-29T08:50:30.111Z,12.35
2023-09-29T08:53:02.093Z,9.20
2023-09-29T08:55:31.755Z,10.05
2023-09-29T08:58:02.623Z,9.45
2023-09-29T09:00:32.136Z,9.05
2023-09-29T09:03:02.425Z,8.60
2023-09-29T09:05:30.609Z,10.40
2023-09-29T09:08:02.484Z,8.25
2023-09-29T09:10:34.380Z,7.60
2023-09-29T09:13:04.587Z,7.53
2023-09-29T09:15:33.221Z,9.43
2023-09-29T09:18:01.614Z,6.18
2023-09-29T09:20:30.434Z,8.10
2023-09-29T09:22:59.897Z,6.20
2023-09-29T09:25:37.294Z,9.45
2023-09-29T09:28:08.468Z,6.72
2023-09-29T09:30:39.017Z,8.27
2023-09-29T09:33:08.104Z,7.40
2023-09-29T09:35:39.833Z,7.72
2023-09-29T09:38:09.179Z,8.30
2023-09-29T09:40:37.395Z,4.97
2023-09-29T09:43:10.994Z,6.55
2023-09-29T09:45:41.626Z,10.43
2023-09-29T09:48:11.759Z,6.78
2023-09-29T09:50:45.614Z,8.18
2023-09-29T09:53:15.615Z,6.75
2023-09-29T09:55:51.647Z,8.20
2023-09-29T09:58:24.408Z,6.80
2023-09-29T10:00:56.769Z,7.00
2023-09-29T10:03:28.013Z,6.70
2023-09-29T10:05:57.983Z,6.22
2023-09-29T10:08:31.788Z,7.22
2023-09-29T10:11:13.733Z,10.43
2023-09-29T10:13:46.609Z,7.70
2023-09-29T10:16:26.016Z,8.75
2023-09-29T10:18:58.927Z,7.93
2023-09-29T10:21:29.689Z,6.07
2023-09-29T10:24:01.697Z,8.85
2023-09-29T10:29:07.490Z,7.57
2023-09-29T10:31:36.751Z,8.55
2023-09-29T10:34:04.872Z,5.63
2023-09-29T10:36:33.751Z,9.00
2023-09-29T10:39:05.632Z,5.70
2023-09-29T10:44:07.652Z,7.40
2023-09-29T10:46:35.967Z,6.25
2023-09-29T10:49:04.107Z,6.95
2023-09-29T10:51:33.440Z,6.55
2023-09-29T10:54:07.951Z,8.13
2023-09-29T10:56:38.475Z,8.43
2023-09-29T10:59:10.355Z,7.63
2023-09-29T11:01:38.878Z,8.93
2023-09-29T11:04:12.060Z,11.82
2023-09-29T11:09:21.119Z,7.15
2023-09-29T11:11:50.003Z,6.60
2023-09-29T11:14:19.657Z,8.48
2023-09-29T11:16:58.053Z,8.73
2023-09-29T11:19:27.780Z,10.95
2023-09-29T11:21:56.021Z,9.35
2023-09-29T11:24:24.593Z,9.98
2023-09-29T11:26:56.671Z,7.38
2023-09-29T11:29:29.254Z,12.57
2023-09-29T11:31:59.183Z,7.88
2023-09-29T11:34:30.631Z,6.70
2023-09-29T11:36:59.027Z,9.07
2023-09-29T11:39:27.078Z,7.68
2023-09-29T11:41:55.249Z,7.38
2023-09-29T11:44:23.256Z,6.90
2023-09-29T11:46:52.932Z,8.73
2023-09-29T11:49:20.885Z,8.63
2023-09-29T11:51:53.808Z,10.95
2023-09-29T11:54:22.952Z,16.27
2023-09-29T11:56:51.118Z,17.65
2023-09-29T11:59:19.170Z,15.80
2023-09-29T12:01:47.253Z,15.80
2023-09-29T12:04:16.893Z,12.50
2023-09-29T12:06:45.014Z,17.50
2023-09-29T12:09:13.027Z,16.30
2023-09-29T12:11:41.381Z,14.38
2023-09-29T12:14:09.907Z,13.82
2023-09-29T12:16:38.110Z,16.30
2023-09-29T12:19:06.380Z,15.10
2023-09-29T12:21:35.770Z,15.75
2023-09-29T12:24:03.870Z,14.88
2023-09-29T12:26:32.269Z,12.00
2023-09-29T12:29:00.344Z,13.68
2023-09-29T12:31:29.049Z,14.30
2023-09-29T12:33:57.791Z,11.25
2023-09-29T12:36:26.101Z,16.15
2023-09-29T12:38:55.590Z,13.40
2023-09-29T12:41:24.181Z,17.15
2023-09-29T12:43:52.180Z,14.98
2023-09-29T12:46:20.679Z,12.38
2023-09-29T12:48:49.156Z,12.25
2023-09-29T12:51:27.354Z,13.02
2023-09-29T12:53:58.188Z,12.20
2023-09-29T12:56:27.816Z,12.15
2023-09-29T12:58:56.851Z,9.93
2023-09-29T13:01:25.413Z,12.68
2023-09-29T13:03:53.897Z,12.13
2023-09-29T13:06:22.748Z,13.23
2023-09-29T13:08:50.857Z,11.63
2023-09-29T13:11:22.323Z,17.63
2023-09-29T13:13:50.347Z,10.60
2023-09-29T13:16:18.378Z,11.95
2023-09-29T13:18:47.108Z,10.63
2023-09-29T13:21:15.852Z,13.40
2023-09-29T13:23:44.651Z,12.82
2023-09-29T13:26:12.783Z,6.40
2023-09-29T13:28:42.164Z,11.73
2023-09-29T13:31:10.183Z,10.48
2023-09-29T13:33:38.311Z,11.32
2023-09-29T13:36:07.250Z,9.23
2023-09-29T13:38:35.299Z,9.68
2023-09-29T13:41:03.464Z,11.27
2023-09-29T13:43:31.564Z,13.10
2023-09-29T13:46:00.971Z,13.02
2023-09-29T13:48:29.090Z,12.15
2023-09-29T13:50:57.253Z,13.50
2023-09-29T13:53:25.314Z,11.27
2023-09-29T13:55:53.600Z,16.35
2023-09-29T13:58:21.567Z,11.85
2023-09-29T14:00:51.236Z,13.82
2023-09-29T14:03:20.715Z,14.02
2023-09-29T14:05:49.048Z,15.73
2023-09-29T14:08:17.213Z,15.20
2023-09-29T14:10:45.358Z,11.90
2023-09-29T14:13:13.482Z,14.23
2023-09-29T14:15:41.534Z,17.45
2023-09-29T14:18:09.709Z,15.23
2023-09-29T14:20:39.221Z,17.27
2023-09-29T14:23:09.104Z,15.80
2023-09-29T14:25:37.453Z,14.32
2023-09-29T14:28:07.302Z,15.32
2023-09-29T14:30:37.710Z,12.95
2023-09-29T14:33:06.156Z,17.48
2023-09-29T14:35:46.537Z,14.65
2023-09-29T14:38:18.749Z,15.07
2023-09-29T14:40:46.957Z,15.88
2023-09-29T14:43:15.196Z,13.60
2023-09-29T14:45:43.234Z,13.32
2023-09-29T14:48:11.442Z,17.05
2023-09-29T14:50:41.604Z,13.45
2023-09-29T14:53:09.659Z,14.70
2023-09-29T14:55:40.663Z,15.80
2023-09-29T14:58:08.836Z,12.70
2023-09-29T15:00:37.180Z,18.00
2023-09-29T15:03:06.699Z,12.15
2023-09-29T15:05:37.049Z,12.63
2023-09-29T15:08:05.852Z,12.98
2023-09-29T15:10:33.907Z,14.43
2023-09-29T15:13:03.357Z,13.77
2023-09-29T15:15:31.483Z,12.50
2023-09-29T15:18:00.773Z,13.27
2023-09-29T15:20:29.459Z,13.63
2023-09-29T15:22:57.456Z,15.18
2023-09-29T15:25:26.206Z,16.55
2023-09-29T15:27:54.507Z,14.55
2023-09-29T15:30:23.925Z,17.10
2023-09-29T15:32:53.534Z,13.45
2023-09-29T15:35:21.554Z,16.92
2023-09-29T15:37:49.578Z,11.75
2023-09-29T15:40:18.672Z,16.30
2023-09-29T15:42:47.045Z,15.48
2023-09-29T15:45:15.074Z,13.65
2023-09-29T15:47:44.514Z,12.20
2023-09-29T15:50:12.552Z,13.80
2023-09-29T15:52:42.177Z,14.52
2023-09-29T15:55:11.725Z,16.02
2023-09-29T15:57:39.851Z,11.48
2023-09-29T16:00:09.439Z,18.25
2023-09-29T16:02:38.299Z,13.30
2023-09-29T16:05:09.599Z,13.18
2023-09-29T16:07:38.371Z,12.50
2023-09-29T16:10:07.511Z,33.15
2023-09-29T16:12:35.493Z,13.02
2023-09-29T16:15:03.735Z,13.07
2023-09-29T16:17:31.891Z,13.60
2023-09-29T16:20:01.421Z,13.50
2023-09-29T16:22:33.090Z,13.52
2023-09-29T16:25:01.622Z,18.98
2023-09-29T16:27:29.713Z,12.82
2023-09-29T16:29:57.745Z,13.73
2023-09-29T16:35:00.515Z,15.70
2023-09-29T16:37:29.967Z,16.27
2023-09-29T16:39:59.531Z,16.02
2023-09-29T16:42:28.842Z,11.00
2023-09-29T16:44:59.489Z,12.18
2023-09-29T16:47:27.638Z,14.38
2023-09-29T16:49:56.507Z,17.58
2023-09-29T16:52:24.700Z,13.07
2023-09-29T16:54:54.086Z,14.02
2023-09-29T16:57:23.109Z,14.93
2023-09-29T16:59:51.401Z,15.90
2023-09-29T17:02:19.995Z,14.90
2023-09-29T17:04:48.108Z,17.20
2023-09-29T17:07:16.138Z,14.35
2023-09-29T17:09:44.190Z,16.02
2023-09-29T17:12:13.923Z,10.40
2023-09-29T17:14:42.505Z,13.25
2023-09-29T17:17:11.378Z,14.18
2023-09-29T17:19:39.739Z,12.05
2023-09-29T17:22:08.021Z,12.40
2023-09-29T17:24:36.947Z,12.98
2023-09-29T17:27:05.684Z,11.05
2023-09-29T17:29:35.149Z,14.38
2023-09-29T17:32:03.239Z,14.35
2023-09-29T17:34:32.583Z,9.05
2023-09-29T17:37:00.705Z,11.57
2023-09-29T17:39:28.785Z,17.13
2023-09-29T17:41:56.941Z,10.90
2023-09-29T17:44:25.029Z,11.55
2023-09-29T17:46:54.360Z,13.43
2023-09-29T17:49:22.504Z,11.35
2023-09-29T17:51:50.572Z,7.93
2023-09-29T17:54:18.654Z,11.82
2023-09-29T17:56:47.115Z,9.55
2023-09-29T17:59:15.081Z,13.75
2023-09-29T18:01:43.273Z,11.40
2023-09-29T18:04:12.836Z,11.82
2023-09-29T18:06:41.243Z,11.00
2023-09-29T18:09:10.244Z,13.95
2023-09-29T18:11:38.847Z,11.15
2023-09-29T18:14:07.083Z,9.63
2023-09-29T18:16:35.364Z,10.02
2023-09-29T18:19:03.459Z,13.55
2023-09-29T18:21:34.032Z,12.50
2023-09-29T18:24:04.147Z,13.65
2023-09-29T18:26:32.180Z,10.80
2023-09-29T18:29:00.665Z,12.32
2023-09-29T18:31:28.741Z,14.43
2023-09-29T18:33:56.788Z,13.60
2023-09-29T18:36:25.751Z,9.85
2023-09-29T18:38:55.368Z,10.70
2023-09-29T18:41:23.549Z,11.90
2023-09-29T18:43:51.578Z,9.98
2023-09-29T18:46:20.060Z,12.13
2023-09-29T18:48:49.645Z,12.10
2023-09-29T18:51:18.147Z,10.55
2023-09-29T18:53:46.339Z,10.82
2023-09-29T18:56:19.107Z,10.18
2023-09-29T18:58:47.266Z,9.65
2023-09-29T19:01:16.337Z,8.68
2023-09-29T19:03:44.375Z,10.40
2023-09-29T19:06:12.999Z,13.00
2023-09-29T19:08:41.175Z,10.80
2023-09-29T19:11:20.452Z,12.13
2023-09-29T19:13:49.538Z,8.93
2023-09-29T19:16:17.693Z,11.10
2023-09-29T19:18:46.321Z,10.52
2023-09-29T19:21:20.724Z,12.07
2023-09-29T19:23:52.398Z,11.55
2023-09-29T19:26:22.170Z,9.55
2023-09-29T19:28:50.524Z,10.43
2023-09-29T19:31:20.846Z,9.63
2023-09-29T19:33:48.925Z,11.43
2023-09-29T19:36:16.986Z,9.85
2023-09-29T19:38:45.012Z,8.18
2023-09-29T19:41:14.604Z,11.75
2023-09-29T19:43:44.232Z,9.55
2023-09-29T19:46:12.706Z,9.57
2023-09-29T19:48:40.968Z,11.88
2023-09-29T19:51:13.918Z,10.15
2023-09-29T19:53:42.812Z,9.40
2023-09-29T19:56:13.324Z,11.50
2023-09-29T19:58:44.460Z,10.25
2023-09-29T20:01:13.075Z,9.63
2023-09-29T20:03:42.175Z,11.73
2023-09-29T20:06:10.634Z,11.95
2023-09-29T20:08:39.394Z,10.93
2023-09-29T20:11:10.550Z,9.77
2023-09-29T20:13:38.995Z,10.93
2023-09-29T20:16:08.937Z,12.80
2023-09-29T20:18:37.190Z,9.13
2023-09-29T20:21:05.406Z,10.38
2023-09-29T20:23:33.474Z,11.20
2023-09-29T20:26:01.714Z,12.48
2023-09-29T20:28:29.778Z,12.63
2023-09-29T20:30:57.794Z,11.75
2023-09-29T20:33:27.231Z,9.52
2023-09-29T20:35:55.288Z,10.88
2023-09-29T20:38:23.320Z,12.88
2023-09-29T20:40:51.627Z,13.32
2023-09-29T20:43:19.745Z,10.45
2023-09-29T20:45:48.570Z,9.25
2023-09-29T20:48:18.128Z,10.23
2023-09-29T20:50:47.744Z,10.27
2023-09-29T20:53:16.553Z,11.02
2023-09-29T20:55:44.825Z,13.10
2023-09-29T20:58:12.866Z,13.18
2023-09-29T21:00:40.957Z,14.60
2023-09-29T21:03:10.831Z,13.88
2023-09-29T21:05:39.078Z,13.68
2023-09-29T21:08:08.466Z,10.88
2023-09-29T21:10:37.647Z,10.38
2023-09-29T21:13:05.896Z,10.40
2023-09-29T21:15:33.960Z,11.25
2023-09-29T21:18:01.997Z,10.60
2023-09-29T21:20:30.067Z,10.00
2023-09-29T21:22:58.054Z,11.82
2023-09-29T21:25:27.501Z,13.15
2023-09-29T21:27:55.721Z,12.68
2023-09-29T21:30:23.791Z,10.45
2023-09-29T21:32:52.361Z,10.80
2023-09-29T21:35:20.450Z,11.43
2023-09-29T21:37:48.476Z,11.68
2023-09-29T21:40:18.137Z,10.00
2023-09-29T21:42:49.654Z,12.63
2023-09-29T21:45:17.822Z,12.27
2023-09-29T21:47:45.947Z,13.50
2023-09-29T21:50:13.988Z,11.88
2023-09-29T21:52:41.999Z,11.98
2023-09-29T21:55:11.204Z,12.50
2023-09-29T21:57:39.464Z,16.15
2023-09-29T22:00:16.790Z,11.88
2023-09-29T22:02:45.147Z,13.70
2023-09-29T22:05:16.797Z,10.73
2023-09-29T22:07:45.468Z,12.07
2023-09-29T22:10:14.259Z,11.30
2023-09-29T22:12:45.540Z,13.85
2023-09-29T22:17:45.608Z,9.43
2023-09-29T22:20:14.377Z,17.48
2023-09-29T22:22:42.432Z,17.70
2023-09-29T22:25:11.813Z,17.23
2023-09-29T22:27:39.855Z,14.75
2023-09-29T22:30:09.409Z,14.50
2023-09-29T22:32:38.969Z,12.82
2023-09-29T22:35:09.749Z,17.67
2023-09-29T22:37:38.626Z,15.23
2023-09-29T22:40:08.220Z,18.40
2023-09-29T22:42:36.844Z,12.43
2023-09-29T22:45:07.528Z,13.93
2023-09-29T22:47:36.787Z,13.40
2023-09-29T22:50:06.962Z,12.27
2023-09-29T22:52:35.512Z,15.98
2023-09-29T22:55:03.617Z,19.25
2023-09-29T22:57:31.662Z,15.55
2023-09-29T23:00:01.607Z,12.90
2023-09-29T23:02:30.078Z,11.60
2023-09-29T23:04:58.200Z,15.45
2023-09-29T23:07:27.569Z,10.38
2023-09-29T23:09:55.541Z,11.88
2023-09-29T23:12:24.226Z,9.65
2023-09-29T23:14:52.248Z,10.45
2023-09-29T23:17:20.426Z,14.07
2023-09-29T23:19:48.834Z,11.07
2023-09-29T23:22:17.126Z,11.55
2023-09-29T23:24:46.579Z,10.93
2023-09-29T23:27:14.578Z,13.52
2023-09-29T23:29:42.679Z,12.80
2023-09-29T23:32:10.969Z,9.80
2023-09-29T23:34:39.708Z,13.32
2023-09-29T23:37:07.690Z,13.27
2023-09-29T23:39:36.173Z,13.02
2023-09-29T23:42:05.877Z,13.32
2023-09-29T23:44:34.423Z,12.52
2023-09-29T23:47:02.583Z,12.52
2023-09-29T23:49:30.835Z,12.52
2023-09-29T23:51:59.207Z,11.20
2023-09-29T23:54:28.378Z,12.93
2023-09-29T23:56:56.612Z,10.45
2023-09-29T23:59:25.989Z,12.40
